sensor_id;sensor_type;location;lat;lon;timestamp;temperature;humidity
24402;DHT22;12539;48.808;11.292;2023-03-11T00:02:03;3.70;97.60
24402;DHT22;12539;48.808;11.292;2023-03-11T00:04:28;3.80;97.70
24402;DHT22;12539;48.808;11.292;2023-03-11T00:06:54;3.80;96.50
24402;DHT22;12539;48.808;11.292;2023-03-11T00:09:19;3.90;97.10
24402;DHT22;12539;48.808;11.292;2023-03-11T00:11:45;3.90;95.00
24402;DHT22;12539;48.808;11.292;2023-03-11T00:14:10;3.90;94.20
24402;DHT22;12539;48.808;11.292;2023-03-11T00:16:36;3.80;93.10
24402;DHT22;12539;48.808;11.292;2023-03-11T00:19:02;3.70;93.30
24402;DHT22;12539;48.808;11.292;2023-03-11T00:21:27;3.70;93.70
24402;DHT22;12539;48.808;11.292;2023-03-11T00:26:37;3.60;94.00
24402;DHT22;12539;48.808;11.292;2023-03-11T00:29:02;3.60;94.20
24402;DHT22;12539;48.808;11.292;2023-03-11T00:31:28;3.60;95.60
24402;DHT22;12539;48.808;11.292;2023-03-11T00:33:53;3.60;94.60
24402;DHT22;12539;48.808;11.292;2023-03-11T00:36:31;3.70;94.50
24402;DHT22;12539;48.808;11.292;2023-03-11T00:38:58;3.70;95.80
24402;DHT22;12539;48.808;11.292;2023-03-11T00:41:24;3.80;94.90
24402;DHT22;12539;48.808;11.292;2023-03-11T00:43:49;3.80;95.80
24402;DHT22;12539;48.808;11.292;2023-03-11T00:46:15;3.90;93.60
24402;DHT22;12539;48.808;11.292;2023-03-11T00:48:43;3.90;92.90
24402;DHT22;12539;48.808;11.292;2023-03-11T00:51:10;3.90;92.90
24402;DHT22;12539;48.808;11.292;2023-03-11T00:53:37;3.80;92.30
24402;DHT22;12539;48.808;11.292;2023-03-11T00:56:07;3.80;92.70
24402;DHT22;12539;48.808;11.292;2023-03-11T00:58:32;3.70;93.60
24402;DHT22;12539;48.808;11.292;2023-03-11T01:01:00;3.80;94.30
24402;DHT22;12539;48.808;11.292;2023-03-11T01:03:26;3.90;93.80
24402;DHT22;12539;48.808;11.292;2023-03-11T01:05:51;3.90;93.70
24402;DHT22;12539;48.808;11.292;2023-03-11T01:08:17;3.90;93.50
24402;DHT22;12539;48.808;11.292;2023-03-11T01:10:42;3.90;92.80
24402;DHT22;12539;48.808;11.292;2023-03-11T01:13:08;3.90;93.90
24402;DHT22;12539;48.808;11.292;2023-03-11T01:15:34;3.90;94.20
24402;DHT22;12539;48.808;11.292;2023-03-11T01:18:00;3.90;93.60
24402;DHT22;12539;48.808;11.292;2023-03-11T01:20:26;3.90;92.90
24402;DHT22;12539;48.808;11.292;2023-03-11T01:22:52;3.90;93.20
24402;DHT22;12539;48.808;11.292;2023-03-11T01:25:18;3.90;92.70
24402;DHT22;12539;48.808;11.292;2023-03-11T01:27:44;3.80;92.90
24402;DHT22;12539;48.808;11.292;2023-03-11T01:30:12;3.80;92.70
24402;DHT22;12539;48.808;11.292;2023-03-11T01:32:38;3.80;92.60
24402;DHT22;12539;48.808;11.292;2023-03-11T01:35:03;3.80;92.80
24402;DHT22;12539;48.808;11.292;2023-03-11T01:37:29;3.80;92.90
24402;DHT22;12539;48.808;11.292;2023-03-11T01:39:54;3.80;94.30
24402;DHT22;12539;48.808;11.292;2023-03-11T01:42:20;3.90;93.80
24402;DHT22;12539;48.808;11.292;2023-03-11T01:44:45;3.90;93.50
24402;DHT22;12539;48.808;11.292;2023-03-11T01:49:37;4.00;95.20
24402;DHT22;12539;48.808;11.292;2023-03-11T01:52:06;3.90;94.80
24402;DHT22;12539;48.808;11.292;2023-03-11T01:54:33;3.90;94.50
24402;DHT22;12539;48.808;11.292;2023-03-11T01:56:59;3.80;94.90
24402;DHT22;12539;48.808;11.292;2023-03-11T01:59:28;3.80;95.30
24402;DHT22;12539;48.808;11.292;2023-03-11T02:02:00;3.80;95.10
24402;DHT22;12539;48.808;11.292;2023-03-11T02:04:27;3.80;96.10
24402;DHT22;12539;48.808;11.292;2023-03-11T02:06:54;3.80;97.60
24402;DHT22;12539;48.808;11.292;2023-03-11T02:09:20;3.90;98.40
24402;DHT22;12539;48.808;11.292;2023-03-11T02:11:48;3.90;97.50
24402;DHT22;12539;48.808;11.292;2023-03-11T02:14:14;3.90;97.10
24402;DHT22;12539;48.808;11.292;2023-03-11T02:16:39;3.90;97.10
24402;DHT22;12539;48.808;11.292;2023-03-11T02:19:15;3.90;97.60
24402;DHT22;12539;48.808;11.292;2023-03-11T02:21:44;3.80;97.90
24402;DHT22;12539;48.808;11.292;2023-03-11T02:29:28;3.70;97.00
24402;DHT22;12539;48.808;11.292;2023-03-11T02:31:54;3.60;97.90
24402;DHT22;12539;48.808;11.292;2023-03-11T02:34:23;3.70;98.40
24402;DHT22;12539;48.808;11.292;2023-03-11T02:36:49;3.60;98.30
24402;DHT22;12539;48.808;11.292;2023-03-11T02:39:15;3.60;99.20
24402;DHT22;12539;48.808;11.292;2023-03-11T02:41:41;3.60;99.90
24402;DHT22;12539;48.808;11.292;2023-03-11T02:44:09;3.70;99.70
24402;DHT22;12539;48.808;11.292;2023-03-11T02:46:35;3.70;99.90
24402;DHT22;12539;48.808;11.292;2023-03-11T02:49:01;3.70;99.90
24402;DHT22;12539;48.808;11.292;2023-03-11T02:51:27;3.70;99.40
24402;DHT22;12539;48.808;11.292;2023-03-11T02:53:54;3.70;99.30
24402;DHT22;12539;48.808;11.292;2023-03-11T02:56:21;3.60;98.80
24402;DHT22;12539;48.808;11.292;2023-03-11T02:58:46;3.50;98.20
24402;DHT22;12539;48.808;11.292;2023-03-11T03:01:12;3.50;99.20
24402;DHT22;12539;48.808;11.292;2023-03-11T03:03:38;3.40;98.60
24402;DHT22;12539;48.808;11.292;2023-03-11T03:06:03;3.30;97.70
24402;DHT22;12539;48.808;11.292;2023-03-11T03:08:29;3.20;97.40
24402;DHT22;12539;48.808;11.292;2023-03-11T03:10:55;3.00;97.60
24402;DHT22;12539;48.808;11.292;2023-03-11T03:13:20;2.90;97.30
24402;DHT22;12539;48.808;11.292;2023-03-11T03:15:46;2.80;97.40
24402;DHT22;12539;48.808;11.292;2023-03-11T03:18:11;2.80;98.20
24402;DHT22;12539;48.808;11.292;2023-03-11T03:20:37;2.70;96.80
24402;DHT22;12539;48.808;11.292;2023-03-11T03:23:02;2.70;96.30
24402;DHT22;12539;48.808;11.292;2023-03-11T03:25:28;2.60;95.40
24402;DHT22;12539;48.808;11.292;2023-03-11T03:27:53;2.50;95.20
24402;DHT22;12539;48.808;11.292;2023-03-11T03:30:19;2.50;94.40
24402;DHT22;12539;48.808;11.292;2023-03-11T03:32:45;2.50;93.90
24402;DHT22;12539;48.808;11.292;2023-03-11T03:35:10;2.40;92.80
24402;DHT22;12539;48.808;11.292;2023-03-11T03:37:36;2.40;94.40
24402;DHT22;12539;48.808;11.292;2023-03-11T03:40:03;2.50;94.30
24402;DHT22;12539;48.808;11.292;2023-03-11T03:42:33;2.40;93.30
24402;DHT22;12539;48.808;11.292;2023-03-11T03:44:58;2.40;92.80
24402;DHT22;12539;48.808;11.292;2023-03-11T03:47:26;2.40;92.50
24402;DHT22;12539;48.808;11.292;2023-03-11T03:49:52;2.30;93.10
24402;DHT22;12539;48.808;11.292;2023-03-11T03:52:17;2.30;92.80
24402;DHT22;12539;48.808;11.292;2023-03-11T03:54:43;2.30;92.10
24402;DHT22;12539;48.808;11.292;2023-03-11T03:57:09;2.20;92.00
24402;DHT22;12539;48.808;11.292;2023-03-11T03:59:34;2.10;92.40
24402;DHT22;12539;48.808;11.292;2023-03-11T04:02:00;2.20;94.20
24402;DHT22;12539;48.808;11.292;2023-03-11T04:04:25;2.10;93.20
24402;DHT22;12539;48.808;11.292;2023-03-11T04:06:51;2.10;93.00
24402;DHT22;12539;48.808;11.292;2023-03-11T04:09:17;2.10;93.80
24402;DHT22;12539;48.808;11.292;2023-03-11T04:11:42;2.10;93.90
24402;DHT22;12539;48.808;11.292;2023-03-11T04:14:08;2.10;93.00
24402;DHT22;12539;48.808;11.292;2023-03-11T04:16:33;2.10;93.00
24402;DHT22;12539;48.808;11.292;2023-03-11T04:18:59;2.00;92.80
24402;DHT22;12539;48.808;11.292;2023-03-11T04:21:24;1.90;92.50
24402;DHT22;12539;48.808;11.292;2023-03-11T04:23:50;1.80;92.80
24402;DHT22;12539;48.808;11.292;2023-03-11T04:26:15;1.90;92.90
24402;DHT22;12539;48.808;11.292;2023-03-11T04:28:41;1.80;93.50
24402;DHT22;12539;48.808;11.292;2023-03-11T04:31:06;1.80;92.60
24402;DHT22;12539;48.808;11.292;2023-03-11T04:33:32;1.70;92.50
24402;DHT22;12539;48.808;11.292;2023-03-11T04:35:58;1.60;93.00
24402;DHT22;12539;48.808;11.292;2023-03-11T04:38:23;1.60;93.00
24402;DHT22;12539;48.808;11.292;2023-03-11T04:40:49;1.60;93.40
24402;DHT22;12539;48.808;11.292;2023-03-11T04:43:14;1.60;92.80
24402;DHT22;12539;48.808;11.292;2023-03-11T04:45:40;1.60;92.80
24402;DHT22;12539;48.808;11.292;2023-03-11T04:48:09;1.50;92.80
24402;DHT22;12539;48.808;11.292;2023-03-11T04:50:35;1.50;93.50
24402;DHT22;12539;48.808;11.292;2023-03-11T04:53:00;1.60;94.30
24402;DHT22;12539;48.808;11.292;2023-03-11T04:55:26;1.60;93.60
24402;DHT22;12539;48.808;11.292;2023-03-11T04:57:51;1.60;92.80
24402;DHT22;12539;48.808;11.292;2023-03-11T05:00:17;1.50;92.40
24402;DHT22;12539;48.808;11.292;2023-03-11T05:02:47;1.40;92.80
24402;DHT22;12539;48.808;11.292;2023-03-11T05:05:12;1.40;93.00
24402;DHT22;12539;48.808;11.292;2023-03-11T05:07:38;1.50;93.00
24402;DHT22;12539;48.808;11.292;2023-03-11T05:10:04;1.40;92.70
24402;DHT22;12539;48.808;11.292;2023-03-11T05:12:29;1.40;93.20
24402;DHT22;12539;48.808;11.292;2023-03-11T05:14:55;1.40;93.50
24402;DHT22;12539;48.808;11.292;2023-03-11T05:17:20;1.40;93.20
24402;DHT22;12539;48.808;11.292;2023-03-11T05:19:46;1.40;92.90
24402;DHT22;12539;48.808;11.292;2023-03-11T05:22:13;1.50;93.00
24402;DHT22;12539;48.808;11.292;2023-03-11T05:24:38;1.50;93.10
24402;DHT22;12539;48.808;11.292;2023-03-11T05:27:04;1.40;93.50
24402;DHT22;12539;48.808;11.292;2023-03-11T05:29:30;1.50;93.60
24402;DHT22;12539;48.808;11.292;2023-03-11T05:31:56;1.50;94.50
24402;DHT22;12539;48.808;11.292;2023-03-11T05:34:21;1.70;94.20
24402;DHT22;12539;48.808;11.292;2023-03-11T05:36:47;1.70;94.30
24402;DHT22;12539;48.808;11.292;2023-03-11T05:39:13;1.70;94.20
24402;DHT22;12539;48.808;11.292;2023-03-11T05:41:38;1.80;94.60
24402;DHT22;12539;48.808;11.292;2023-03-11T05:44:04;1.80;94.10
24402;DHT22;12539;48.808;11.292;2023-03-11T05:46:30;1.80;93.30
24402;DHT22;12539;48.808;11.292;2023-03-11T05:48:57;1.80;93.10
24402;DHT22;12539;48.808;11.292;2023-03-11T05:51:23;1.80;93.30
24402;DHT22;12539;48.808;11.292;2023-03-11T05:53:48;1.80;93.70
24402;DHT22;12539;48.808;11.292;2023-03-11T05:56:14;1.90;93.80
24402;DHT22;12539;48.808;11.292;2023-03-11T05:58:40;1.90;93.50
24402;DHT22;12539;48.808;11.292;2023-03-11T06:01:09;2.00;93.90
24402;DHT22;12539;48.808;11.292;2023-03-11T06:03:35;2.00;94.30
24402;DHT22;12539;48.808;11.292;2023-03-11T06:06:00;2.20;95.00
24402;DHT22;12539;48.808;11.292;2023-03-11T06:08:26;2.20;93.80
24402;DHT22;12539;48.808;11.292;2023-03-11T06:10:52;2.30;94.70
24402;DHT22;12539;48.808;11.292;2023-03-11T06:13:17;2.30;95.10
24402;DHT22;12539;48.808;11.292;2023-03-11T06:15:43;2.20;92.90
24402;DHT22;12539;48.808;11.292;2023-03-11T06:18:10;2.20;93.00
24402;DHT22;12539;48.808;11.292;2023-03-11T06:20:35;2.10;93.00
24402;DHT22;12539;48.808;11.292;2023-03-11T06:23:02;2.00;93.00
24402;DHT22;12539;48.808;11.292;2023-03-11T06:25:27;2.00;93.30
24402;DHT22;12539;48.808;11.292;2023-03-11T06:27:53;2.00;93.90
24402;DHT22;12539;48.808;11.292;2023-03-11T06:30:22;2.10;94.60
24402;DHT22;12539;48.808;11.292;2023-03-11T06:32:48;2.20;94.60
24402;DHT22;12539;48.808;11.292;2023-03-11T06:35:13;2.30;95.70
24402;DHT22;12539;48.808;11.292;2023-03-11T06:37:39;2.40;94.40
24402;DHT22;12539;48.808;11.292;2023-03-11T06:40:06;2.40;93.80
24402;DHT22;12539;48.808;11.292;2023-03-11T06:42:32;2.50;93.40
24402;DHT22;12539;48.808;11.292;2023-03-11T06:44:57;2.50;93.60
24402;DHT22;12539;48.808;11.292;2023-03-11T06:47:23;2.60;92.90
24402;DHT22;12539;48.808;11.292;2023-03-11T06:49:49;2.60;93.30
24402;DHT22;12539;48.808;11.292;2023-03-11T06:52:15;2.70;93.70
24402;DHT22;12539;48.808;11.292;2023-03-11T06:54:40;2.70;92.80
24402;DHT22;12539;48.808;11.292;2023-03-11T06:57:06;2.60;92.00
24402;DHT22;12539;48.808;11.292;2023-03-11T06:59:32;2.60;92.00
24402;DHT22;12539;48.808;11.292;2023-03-11T07:01:58;2.60;92.30
24402;DHT22;12539;48.808;11.292;2023-03-11T07:04:24;2.60;92.50
24402;DHT22;12539;48.808;11.292;2023-03-11T07:06:49;2.60;92.50
24402;DHT22;12539;48.808;11.292;2023-03-11T07:09:15;2.70;93.90
24402;DHT22;12539;48.808;11.292;2023-03-11T07:11:40;2.80;93.00
24402;DHT22;12539;48.808;11.292;2023-03-11T07:14:06;2.90;92.20
24402;DHT22;12539;48.808;11.292;2023-03-11T07:16:32;2.90;92.20
24402;DHT22;12539;48.808;11.292;2023-03-11T07:18:58;2.90;92.40
24402;DHT22;12539;48.808;11.292;2023-03-11T07:21:25;2.80;92.20
24402;DHT22;12539;48.808;11.292;2023-03-11T07:23:52;2.80;92.10
24402;DHT22;12539;48.808;11.292;2023-03-11T07:26:17;2.80;92.00
24402;DHT22;12539;48.808;11.292;2023-03-11T07:28:43;2.80;93.00
24402;DHT22;12539;48.808;11.292;2023-03-11T07:31:10;2.80;92.40
24402;DHT22;12539;48.808;11.292;2023-03-11T07:33:36;2.90;92.40
24402;DHT22;12539;48.808;11.292;2023-03-11T07:36:10;2.90;93.00
24402;DHT22;12539;48.808;11.292;2023-03-11T07:38:36;3.00;92.60
24402;DHT22;12539;48.808;11.292;2023-03-11T07:41:01;3.10;93.50
24402;DHT22;12539;48.808;11.292;2023-03-11T07:43:27;3.20;93.30
24402;DHT22;12539;48.808;11.292;2023-03-11T07:46:00;3.30;92.90
24402;DHT22;12539;48.808;11.292;2023-03-11T07:48:26;3.30;92.70
24402;DHT22;12539;48.808;11.292;2023-03-11T07:50:58;3.30;91.80
24402;DHT22;12539;48.808;11.292;2023-03-11T07:53:23;3.30;91.40
24402;DHT22;12539;48.808;11.292;2023-03-11T07:55:54;3.20;90.70
24402;DHT22;12539;48.808;11.292;2023-03-11T07:58:19;3.20;90.80
24402;DHT22;12539;48.808;11.292;2023-03-11T08:00:45;3.20;92.60
24402;DHT22;12539;48.808;11.292;2023-03-11T08:03:10;3.30;91.50
24402;DHT22;12539;48.808;11.292;2023-03-11T08:05:36;3.40;92.70
24402;DHT22;12539;48.808;11.292;2023-03-11T08:08:01;3.50;91.80
24402;DHT22;12539;48.808;11.292;2023-03-11T08:10:27;3.60;91.20
24402;DHT22;12539;48.808;11.292;2023-03-11T08:12:53;3.80;90.90
24402;DHT22;12539;48.808;11.292;2023-03-11T08:15:18;3.80;90.50
24402;DHT22;12539;48.808;11.292;2023-03-11T08:17:44;4.00;89.40
24402;DHT22;12539;48.808;11.292;2023-03-11T08:20:10;4.00;88.70
24402;DHT22;12539;48.808;11.292;2023-03-11T08:22:35;4.10;88.00
24402;DHT22;12539;48.808;11.292;2023-03-11T08:25:01;4.00;90.50
24402;DHT22;12539;48.808;11.292;2023-03-11T08:27:27;4.10;91.30
24402;DHT22;12539;48.808;11.292;2023-03-11T08:29:53;4.10;90.30
24402;DHT22;12539;48.808;11.292;2023-03-11T08:32:19;4.00;89.10
24402;DHT22;12539;48.808;11.292;2023-03-11T08:34:44;3.90;89.40
24402;DHT22;12539;48.808;11.292;2023-03-11T08:37:10;3.90;88.40
24402;DHT22;12539;48.808;11.292;2023-03-11T08:39:35;4.00;89.90
24402;DHT22;12539;48.808;11.292;2023-03-11T08:42:01;4.20;89.30
24402;DHT22;12539;48.808;11.292;2023-03-11T08:44:27;4.20;88.30
24402;DHT22;12539;48.808;11.292;2023-03-11T08:46:53;4.30;87.50
24402;DHT22;12539;48.808;11.292;2023-03-11T08:49:19;4.30;89.70
24402;DHT22;12539;48.808;11.292;2023-03-11T08:51:44;4.40;87.30
24402;DHT22;12539;48.808;11.292;2023-03-11T08:54:10;4.40;87.70
24402;DHT22;12539;48.808;11.292;2023-03-11T08:56:35;4.40;90.20
24402;DHT22;12539;48.808;11.292;2023-03-11T08:59:01;4.60;90.50
24402;DHT22;12539;48.808;11.292;2023-03-11T09:01:26;4.70;90.20
24402;DHT22;12539;48.808;11.292;2023-03-11T09:03:53;4.90;90.90
24402;DHT22;12539;48.808;11.292;2023-03-11T09:06:28;5.00;88.20
24402;DHT22;12539;48.808;11.292;2023-03-11T09:08:54;5.00;88.40
24402;DHT22;12539;48.808;11.292;2023-03-11T09:11:20;5.10;87.30
24402;DHT22;12539;48.808;11.292;2023-03-11T09:13:47;5.10;85.60
24402;DHT22;12539;48.808;11.292;2023-03-11T09:16:13;5.20;85.60
24402;DHT22;12539;48.808;11.292;2023-03-11T09:18:39;5.30;87.20
24402;DHT22;12539;48.808;11.292;2023-03-11T09:21:05;5.40;86.80
24402;DHT22;12539;48.808;11.292;2023-03-11T09:23:30;5.50;89.60
24402;DHT22;12539;48.808;11.292;2023-03-11T09:25:56;5.70;90.10
24402;DHT22;12539;48.808;11.292;2023-03-11T09:28:22;5.80;86.40
24402;DHT22;12539;48.808;11.292;2023-03-11T09:30:47;5.80;84.00
24402;DHT22;12539;48.808;11.292;2023-03-11T09:33:13;5.80;83.90
24402;DHT22;12539;48.808;11.292;2023-03-11T09:35:38;5.70;83.40
24402;DHT22;12539;48.808;11.292;2023-03-11T09:38:04;5.80;87.30
24402;DHT22;12539;48.808;11.292;2023-03-11T09:43:29;5.90;87.40
24402;DHT22;12539;48.808;11.292;2023-03-11T09:46:02;6.00;88.00
24402;DHT22;12539;48.808;11.292;2023-03-11T09:48:35;6.20;86.60
24402;DHT22;12539;48.808;11.292;2023-03-11T09:53:43;6.50;82.90
24402;DHT22;12539;48.808;11.292;2023-03-11T09:56:10;6.60;85.80
24402;DHT22;12539;48.808;11.292;2023-03-11T09:58:49;6.70;83.10
24402;DHT22;12539;48.808;11.292;2023-03-11T10:03:43;6.70;80.70
24402;DHT22;12539;48.808;11.292;2023-03-11T10:06:13;6.80;86.10
24402;DHT22;12539;48.808;11.292;2023-03-11T10:24:18;7.40;83.90
24402;DHT22;12539;48.808;11.292;2023-03-11T10:26:46;7.40;81.30
24402;DHT22;12539;48.808;11.292;2023-03-11T10:29:26;7.20;78.30
24402;DHT22;12539;48.808;11.292;2023-03-11T10:36:56;6.30;81.90
24402;DHT22;12539;48.808;11.292;2023-03-11T10:39:23;6.30;84.00
24402;DHT22;12539;48.808;11.292;2023-03-11T10:41:50;6.30;86.40
24402;DHT22;12539;48.808;11.292;2023-03-11T10:46:45;6.40;87.50
24402;DHT22;12539;48.808;11.292;2023-03-11T10:49:12;6.50;87.70
24402;DHT22;12539;48.808;11.292;2023-03-11T10:51:38;6.50;83.50
24402;DHT22;12539;48.808;11.292;2023-03-11T10:54:04;6.50;80.10
24402;DHT22;12539;48.808;11.292;2023-03-11T10:56:37;6.50;79.30
24402;DHT22;12539;48.808;11.292;2023-03-11T10:59:04;6.40;78.10
24402;DHT22;12539;48.808;11.292;2023-03-11T11:01:30;6.40;79.30
24402;DHT22;12539;48.808;11.292;2023-03-11T11:03:57;6.40;82.40
24402;DHT22;12539;48.808;11.292;2023-03-11T11:09:09;6.40;85.10
24402;DHT22;12539;48.808;11.292;2023-03-11T11:11:37;6.50;88.20
24402;DHT22;12539;48.808;11.292;2023-03-11T11:14:04;6.60;84.80
24402;DHT22;12539;48.808;11.292;2023-03-11T11:16:29;6.80;84.30
24402;DHT22;12539;48.808;11.292;2023-03-11T11:19:09;6.90;81.60
24402;DHT22;12539;48.808;11.292;2023-03-11T11:21:42;6.90;80.00
24402;DHT22;12539;48.808;11.292;2023-03-11T11:27:03;7.00;78.00
24402;DHT22;12539;48.808;11.292;2023-03-11T11:29:29;7.10;77.10
24402;DHT22;12539;48.808;11.292;2023-03-11T11:34:41;7.30;82.30
24402;DHT22;12539;48.808;11.292;2023-03-11T11:37:09;7.50;83.60
24402;DHT22;12539;48.808;11.292;2023-03-11T11:39:43;7.70;85.10
24402;DHT22;12539;48.808;11.292;2023-03-11T11:42:16;7.90;86.20
24402;DHT22;12539;48.808;11.292;2023-03-11T11:44:42;8.00;84.30
24402;DHT22;12539;48.808;11.292;2023-03-11T11:47:42;8.10;83.50
24402;DHT22;12539;48.808;11.292;2023-03-11T11:50:00;8.10;77.10
24402;DHT22;12539;48.808;11.292;2023-03-11T11:52:30;7.90;74.70
24402;DHT22;12539;48.808;11.292;2023-03-11T11:55:08;7.80;75.00
24402;DHT22;12539;48.808;11.292;2023-03-11T11:57:41;7.70;74.30
24402;DHT22;12539;48.808;11.292;2023-03-11T12:00:28;7.70;76.60
24402;DHT22;12539;48.808;11.292;2023-03-11T12:03:01;7.80;74.70
24402;DHT22;12539;48.808;11.292;2023-03-11T12:05:30;7.90;78.90
24402;DHT22;12539;48.808;11.292;2023-03-11T12:15:49;8.10;74.20
24402;DHT22;12539;48.808;11.292;2023-03-11T12:18:24;8.00;72.70
24402;DHT22;12539;48.808;11.292;2023-03-11T12:20:53;8.00;77.40
24402;DHT22;12539;48.808;11.292;2023-03-11T12:23:21;8.10;75.10
24402;DHT22;12539;48.808;11.292;2023-03-11T12:30:40;8.20;72.00
24402;DHT22;12539;48.808;11.292;2023-03-11T12:33:13;8.10;70.10
24402;DHT22;12539;48.808;11.292;2023-03-11T12:35:41;8.00;71.90
24402;DHT22;12539;48.808;11.292;2023-03-11T12:40:42;7.80;72.10
24402;DHT22;12539;48.808;11.292;2023-03-11T12:45:55;7.60;71.00
24402;DHT22;12539;48.808;11.292;2023-03-11T12:50:52;7.30;71.00
24402;DHT22;12539;48.808;11.292;2023-03-11T12:53:19;7.30;73.00
24402;DHT22;12539;48.808;11.292;2023-03-11T12:55:55;7.30;74.30
24402;DHT22;12539;48.808;11.292;2023-03-11T12:58:39;7.30;76.80
24402;DHT22;12539;48.808;11.292;2023-03-11T13:08:55;7.60;78.10
24402;DHT22;12539;48.808;11.292;2023-03-11T13:11:35;7.70;76.90
24402;DHT22;12539;48.808;11.292;2023-03-11T13:16:39;7.60;71.50
24402;DHT22;12539;48.808;11.292;2023-03-11T13:21:48;7.60;77.40
24402;DHT22;12539;48.808;11.292;2023-03-11T13:34:16;8.20;75.70
24402;DHT22;12539;48.808;11.292;2023-03-11T13:39:25;8.00;72.40
24402;DHT22;12539;48.808;11.292;2023-03-11T13:41:52;7.80;70.90
24402;DHT22;12539;48.808;11.292;2023-03-11T13:46:44;7.50;69.40
24402;DHT22;12539;48.808;11.292;2023-03-11T13:49:31;7.40;69.30
24402;DHT22;12539;48.808;11.292;2023-03-11T13:51:57;7.30;72.80
24402;DHT22;12539;48.808;11.292;2023-03-11T13:54:29;7.20;75.40
24402;DHT22;12539;48.808;11.292;2023-03-11T13:56:57;7.20;73.30
24402;DHT22;12539;48.808;11.292;2023-03-11T13:59:24;7.10;74.70
24402;DHT22;12539;48.808;11.292;2023-03-11T14:01:52;7.10;73.80
24402;DHT22;12539;48.808;11.292;2023-03-11T14:04:28;7.10;76.70
24402;DHT22;12539;48.808;11.292;2023-03-11T14:06:54;7.10;78.00
24402;DHT22;12539;48.808;11.292;2023-03-11T14:09:20;7.20;80.10
24402;DHT22;12539;48.808;11.292;2023-03-11T14:11:46;7.30;79.00
24402;DHT22;12539;48.808;11.292;2023-03-11T14:14:18;7.30;74.30
24402;DHT22;12539;48.808;11.292;2023-03-11T14:16:51;7.20;72.40
24402;DHT22;12539;48.808;11.292;2023-03-11T14:19:17;7.00;71.70
24402;DHT22;12539;48.808;11.292;2023-03-11T14:21:44;6.90;72.10
24402;DHT22;12539;48.808;11.292;2023-03-11T14:24:21;6.90;72.50
24402;DHT22;12539;48.808;11.292;2023-03-11T14:26:47;6.80;77.40
24402;DHT22;12539;48.808;11.292;2023-03-11T14:29:15;6.80;74.00
24402;DHT22;12539;48.808;11.292;2023-03-11T14:31:42;6.80;77.80
24402;DHT22;12539;48.808;11.292;2023-03-11T14:34:21;7.00;82.50
24402;DHT22;12539;48.808;11.292;2023-03-11T14:39:34;7.00;73.90
24402;DHT22;12539;48.808;11.292;2023-03-11T14:44:25;6.80;72.80
24402;DHT22;12539;48.808;11.292;2023-03-11T14:47:00;6.70;73.40
24402;DHT22;12539;48.808;11.292;2023-03-11T14:49:28;6.60;73.40
24402;DHT22;12539;48.808;11.292;2023-03-11T14:51:56;6.50;77.20
24402;DHT22;12539;48.808;11.292;2023-03-11T14:54:24;6.60;80.20
24402;DHT22;12539;48.808;11.292;2023-03-11T14:56:54;6.70;81.00
24402;DHT22;12539;48.808;11.292;2023-03-11T14:59:21;6.90;77.50
24402;DHT22;12539;48.808;11.292;2023-03-11T15:01:51;6.90;78.40
24402;DHT22;12539;48.808;11.292;2023-03-11T15:04:26;6.90;73.80
24402;DHT22;12539;48.808;11.292;2023-03-11T15:06:56;7.00;77.50
24402;DHT22;12539;48.808;11.292;2023-03-11T15:09:22;7.00;74.60
24402;DHT22;12539;48.808;11.292;2023-03-11T15:11:53;7.10;78.60
24402;DHT22;12539;48.808;11.292;2023-03-11T15:14:26;7.10;78.40
24402;DHT22;12539;48.808;11.292;2023-03-11T15:16:52;7.10;75.20
24402;DHT22;12539;48.808;11.292;2023-03-11T15:21:50;6.90;71.90
24402;DHT22;12539;48.808;11.292;2023-03-11T15:24:21;6.80;75.70
24402;DHT22;12539;48.808;11.292;2023-03-11T15:26:54;6.80;75.20
24402;DHT22;12539;48.808;11.292;2023-03-11T15:29:20;6.70;74.60
24402;DHT22;12539;48.808;11.292;2023-03-11T15:31:46;6.70;76.60
24402;DHT22;12539;48.808;11.292;2023-03-11T15:36:44;6.80;82.00
24402;DHT22;12539;48.808;11.292;2023-03-11T15:39:20;6.90;82.60
24402;DHT22;12539;48.808;11.292;2023-03-11T15:44:35;6.90;81.80
24402;DHT22;12539;48.808;11.292;2023-03-11T15:47:03;6.90;79.60
24402;DHT22;12539;48.808;11.292;2023-03-11T15:49:30;6.80;78.10
24402;DHT22;12539;48.808;11.292;2023-03-11T15:51:59;6.70;77.90
24402;DHT22;12539;48.808;11.292;2023-03-11T15:54:25;6.60;79.10
24402;DHT22;12539;48.808;11.292;2023-03-11T15:56:50;6.50;79.70
24402;DHT22;12539;48.808;11.292;2023-03-11T15:59:16;6.50;80.20
24402;DHT22;12539;48.808;11.292;2023-03-11T16:01:42;6.30;77.60
24402;DHT22;12539;48.808;11.292;2023-03-11T16:04:09;6.20;78.30
24402;DHT22;12539;48.808;11.292;2023-03-11T16:06:36;6.10;79.10
24402;DHT22;12539;48.808;11.292;2023-03-11T16:09:01;6.10;80.90
24402;DHT22;12539;48.808;11.292;2023-03-11T16:11:27;6.10;81.10
24402;DHT22;12539;48.808;11.292;2023-03-11T16:13:57;6.10;83.90
24402;DHT22;12539;48.808;11.292;2023-03-11T16:16:22;6.20;85.60
24402;DHT22;12539;48.808;11.292;2023-03-11T16:18:48;6.30;86.60
24402;DHT22;12539;48.808;11.292;2023-03-11T16:21:14;6.30;85.50
24402;DHT22;12539;48.808;11.292;2023-03-11T16:23:41;6.30;86.50
24402;DHT22;12539;48.808;11.292;2023-03-11T16:26:06;6.20;85.90
24402;DHT22;12539;48.808;11.292;2023-03-11T16:28:34;6.10;85.50
24402;DHT22;12539;48.808;11.292;2023-03-11T16:30:59;6.10;84.80
24402;DHT22;12539;48.808;11.292;2023-03-11T16:33:25;6.00;87.20
24402;DHT22;12539;48.808;11.292;2023-03-11T16:35:50;6.00;87.70
24402;DHT22;12539;48.808;11.292;2023-03-11T16:38:16;6.00;87.50
24402;DHT22;12539;48.808;11.292;2023-03-11T16:40:43;6.00;88.20
24402;DHT22;12539;48.808;11.292;2023-03-11T16:43:09;6.00;88.20
24402;DHT22;12539;48.808;11.292;2023-03-11T16:45:36;6.00;87.80
24402;DHT22;12539;48.808;11.292;2023-03-11T16:48:02;5.90;84.70
24402;DHT22;12539;48.808;11.292;2023-03-11T16:50:28;5.80;85.00
24402;DHT22;12539;48.808;11.292;2023-03-11T16:52:54;5.70;85.10
24402;DHT22;12539;48.808;11.292;2023-03-11T16:55:20;5.60;84.10
24402;DHT22;12539;48.808;11.292;2023-03-11T16:57:45;5.60;85.70
24402;DHT22;12539;48.808;11.292;2023-03-11T17:00:11;5.50;85.20
24402;DHT22;12539;48.808;11.292;2023-03-11T17:02:37;5.50;86.30
24402;DHT22;12539;48.808;11.292;2023-03-11T17:05:05;5.50;87.60
24402;DHT22;12539;48.808;11.292;2023-03-11T17:07:31;5.40;88.10
24402;DHT22;12539;48.808;11.292;2023-03-11T17:09:57;5.50;88.70
24402;DHT22;12539;48.808;11.292;2023-03-11T17:12:23;5.50;88.00
24402;DHT22;12539;48.808;11.292;2023-03-11T17:14:50;5.40;90.20
24402;DHT22;12539;48.808;11.292;2023-03-11T17:17:15;5.50;91.20
24402;DHT22;12539;48.808;11.292;2023-03-11T17:19:41;5.50;91.00
24402;DHT22;12539;48.808;11.292;2023-03-11T17:22:07;5.50;91.60